createdAt,value
2022-11-05T00:08:08.857Z,82.71
2022-11-05T00:18:12.890Z,82.36
2022-11-05T00:28:15.324Z,83.37
2022-11-05T00:38:19.073Z,83.58
2022-11-05T00:48:38.830Z,83.09
2022-11-05T00:58:42.605Z,84.51
2022-11-05T01:08:45.711Z,84.88
2022-11-05T01:18:49.512Z,85.17
2022-11-05T01:28:52.856Z,85.54
2022-11-05T01:38:56.678Z,85.64
2022-11-05T01:49:03.640Z,85.49
2022-11-05T01:59:09.311Z,86.08
2022-11-05T02:09:14.099Z,86.47
2022-11-05T02:19:34.409Z,87.74
2022-11-05T02:29:59.287Z,87.66
2022-11-05T02:40:07.770Z,87.13
2022-11-05T02:50:15.405Z,86.75
2022-11-05T03:00:51.023Z,86.83
2022-11-05T03:10:58.965Z,86.38
2022-11-05T03:21:04.348Z,86.63
2022-11-05T03:31:08.984Z,87.21
2022-11-05T03:41:14.491Z,87.35
2022-11-05T03:51:21.993Z,87.26
2022-11-05T04:01:24.824Z,86.80
2022-11-05T04:11:46.625Z,86.22
2022-11-05T04:22:08.851Z,87.40
2022-11-05T04:32:12.603Z,87.47
2022-11-05T04:42:15.036Z,87.15
2022-11-05T04:52:18.810Z,87.17
2022-11-05T05:02:21.255Z,86.74
2022-11-05T05:12:25.671Z,86.36
2022-11-05T05:22:28.119Z,85.81
2022-11-05T05:32:31.970Z,86.16
2022-11-05T05:42:37.568Z,86.36
2022-11-05T05:52:45.587Z,86.14
2022-11-05T06:02:48.197Z,86.51
2022-11-05T06:12:52.067Z,88.27
2022-11-05T06:22:57.623Z,89.81
2022-11-05T06:33:04.624Z,88.91
2022-11-05T06:43:07.154Z,87.82
2022-11-05T06:53:11.512Z,89.72
2022-11-05T07:03:14.731Z,87.89
2022-11-05T07:13:18.983Z,87.88
2022-11-05T07:23:21.387Z,86.60
2022-11-05T07:33:25.112Z,87.75
2022-11-05T07:43:27.525Z,87.30
2022-11-05T07:53:31.269Z,88.54
2022-11-05T08:03:34.213Z,87.68
2022-11-05T08:13:38.465Z,87.36
2022-11-05T08:23:42.561Z,86.96
2022-11-05T08:33:46.316Z,86.05
2022-11-05T08:43:48.741Z,85.43
2022-11-05T08:53:52.493Z,86.26
2022-11-05T09:03:54.920Z,82.60
2022-11-05T09:14:00.874Z,84.01
2022-11-05T09:24:03.263Z,83.45
2022-11-05T09:34:07.177Z,83.12
2022-11-05T09:44:12.662Z,82.36
2022-11-05T09:54:16.554Z,82.77
2022-11-05T10:04:20.616Z,82.16
2022-11-05T10:14:26.921Z,80.43
2022-11-05T10:24:29.330Z,79.87
2022-11-05T10:34:34.453Z,79.61
2022-11-05T10:44:38.770Z,78.11
2022-11-05T10:54:42.675Z,76.84
2022-11-05T11:04:45.084Z,76.38
2022-11-05T11:15:01.045Z,74.66
2022-11-05T11:25:18.917Z,74.38
2022-11-05T11:35:23.921Z,73.94
2022-11-05T11:45:28.750Z,74.36
2022-11-05T11:55:32.568Z,74.32
2022-11-05T12:05:37.524Z,74.16
2022-11-05T12:15:44.189Z,73.00
2022-11-05T12:25:51.475Z,71.84
2022-11-05T12:36:10.497Z,70.42
2022-11-05T12:46:21.899Z,69.05
2022-11-05T12:56:31.731Z,69.13
2022-11-05T13:06:37.213Z,67.37
2022-11-05T13:16:42.655Z,66.98
2022-11-05T13:26:48.170Z,67.19
2022-11-05T13:37:12.849Z,67.89
2022-11-05T13:47:23.751Z,68.62
2022-11-05T13:57:36.344Z,69.67
2022-11-05T14:07:44.877Z,69.07
2022-11-05T14:17:59.607Z,68.78
2022-11-05T14:28:02.061Z,69.22
2022-11-05T14:38:07.690Z,69.86
2022-11-05T14:48:26.681Z,70.15
2022-11-05T14:58:31.936Z,69.09
2022-11-05T15:08:37.640Z,68.66
2022-11-05T15:18:45.156Z,68.97
2022-11-05T15:28:48.897Z,68.53
2022-11-05T15:39:15.528Z,70.06
2022-11-05T15:49:16.219Z,71.57
2022-11-05T15:59:20.737Z,71.30
2022-11-05T16:09:24.401Z,72.00
2022-11-05T16:19:40.895Z,73.10
2022-11-05T16:29:48.449Z,74.19
2022-11-05T16:39:52.442Z,75.07
2022-11-05T16:49:54.913Z,76.07
2022-11-05T16:59:59.626Z,77.08
2022-11-05T17:10:02.004Z,77.84
2022-11-05T17:20:06.401Z,78.57
2022-11-05T17:30:10.124Z,78.74
2022-11-05T17:40:15.917Z,79.49
2022-11-05T17:50:18.429Z,80.35
2022-11-05T18:00:23.146Z,80.76
2022-11-05T18:10:25.903Z,81.25
2022-11-05T18:20:31.437Z,79.91
2022-11-05T18:30:34.192Z,80.32
2022-11-05T18:40:37.969Z,80.20
2022-11-05T18:50:40.638Z,79.24
2022-11-05T19:00:46.460Z,79.55
2022-11-05T19:10:51.354Z,80.32
2022-11-05T19:20:55.078Z,80.62
2022-11-05T19:30:57.506Z,79.94
2022-11-05T19:41:03.526Z,80.41
2022-11-05T19:51:09.470Z,81.07
2022-11-05T20:01:13.904Z,80.60
2022-11-05T20:11:16.571Z,80.90
2022-11-05T20:21:20.667Z,80.13
2022-11-05T20:31:23.560Z,80.39
2022-11-05T20:41:27.656Z,80.17
2022-11-05T20:51:30.047Z,81.66
2022-11-05T21:01:34.318Z,81.60
2022-11-05T21:11:50.833Z,81.94
2022-11-05T21:21:54.574Z,80.77
2022-11-05T21:31:56.983Z,81.14
2022-11-05T21:42:00.742Z,80.18
2022-11-05T21:52:20.965Z,81.28
2022-11-05T22:02:28.362Z,81.23
2022-11-05T22:12:32.116Z,81.58
2022-11-05T22:22:35.905Z,83.05
2022-11-05T22:32:38.617Z,80.02
2022-11-05T22:42:42.400Z,80.24
2022-11-05T22:52:44.821Z,81.13
2022-11-05T23:02:48.711Z,82.46
2022-11-05T23:12:53.058Z,81.92
2022-11-05T23:23:14.710Z,81.46
2022-11-05T23:33:17.241Z,81.51
2022-11-05T23:43:38.193Z,81.96
2022-11-05T23:53:41.912Z,82.67
